sensor_id;sensor_type;location;lat;lon;timestamp;pressure;altitude;pressure_sealevel;temperature;humidity
8039;BME280;4062;49.844;8.120;2022-07-05T00:01:31;99682.06;;;19.57;57.30
8039;BME280;4062;49.844;8.120;2022-07-05T00:03:32;99676.72;;;19.57;57.23
8039;BME280;4062;49.844;8.120;2022-07-05T00:05:32;99688.28;;;19.57;57.49
8039;BME280;4062;49.844;8.120;2022-07-05T00:07:33;99682.06;;;19.57;57.50
8039;BME280;4062;49.844;8.120;2022-07-05T00:09:34;99683.91;;;19.56;57.27
8039;BME280;4062;49.844;8.120;2022-07-05T00:11:35;99682.91;;;19.57;57.43
8039;BME280;4062;49.844;8.120;2022-07-05T00:13:35;99677.56;;;19.57;57.40
8039;BME280;4062;49.844;8.120;2022-07-05T00:15:36;99675.75;;;19.58;57.35
8039;BME280;4062;49.844;8.120;2022-07-05T00:17:37;99677.56;;;19.57;57.34
8039;BME280;4062;49.844;8.120;2022-07-05T00:19:39;99679.38;;;19.57;57.44
8039;BME280;4062;49.844;8.120;2022-07-05T00:21:40;99675.88;;;19.56;57.47
8039;BME280;4062;49.844;8.120;2022-07-05T00:23:40;99674.03;;;19.57;57.50
8039;BME280;4062;49.844;8.120;2022-07-05T00:25:41;99674.03;;;19.57;57.24
8039;BME280;4062;49.844;8.120;2022-07-05T00:27:42;99679.38;;;19.57;57.49
8039;BME280;4062;49.844;8.120;2022-07-05T00:29:43;99682.91;;;19.57;57.71
8039;BME280;4062;49.844;8.120;2022-07-05T00:31:45;99681.22;;;19.56;57.24
8039;BME280;4062;49.844;8.120;2022-07-05T00:33:45;99679.38;;;19.57;57.24
8039;BME280;4062;49.844;8.120;2022-07-05T00:35:46;99674.03;;;19.57;57.29
8039;BME280;4062;49.844;8.120;2022-07-05T00:37:47;99676.72;;;19.57;57.18
8039;BME280;4062;49.844;8.120;2022-07-05T00:39:47;99674.03;;;19.57;57.28
8039;BME280;4062;49.844;8.120;2022-07-05T00:41:48;99678.53;;;19.56;57.09
8039;BME280;4062;49.844;8.120;2022-07-05T00:44:07;99681.22;;;19.56;57.52
8039;BME280;4062;49.844;8.120;2022-07-05T00:46:09;99678.53;;;19.56;57.38
8039;BME280;4062;49.844;8.120;2022-07-05T00:48:09;99672.19;;;19.57;57.33
8039;BME280;4062;49.844;8.120;2022-07-05T00:50:10;99672.28;;;19.56;57.32
8039;BME280;4062;49.844;8.120;2022-07-05T00:52:12;99678.53;;;19.56;57.52
8039;BME280;4062;49.844;8.120;2022-07-05T00:54:13;99676.72;;;19.57;57.27
8039;BME280;4062;49.844;8.120;2022-07-05T00:56:14;99674.88;;;19.57;57.25
8039;BME280;4062;49.844;8.120;2022-07-05T00:58:15;99674.03;;;19.57;57.34
8039;BME280;4062;49.844;8.120;2022-07-05T01:00:16;99678.53;;;19.56;57.48
8039;BME280;4062;49.844;8.120;2022-07-05T01:02:17;99678.53;;;19.56;57.42
8039;BME280;4062;49.844;8.120;2022-07-05T01:04:20;99679.38;;;19.57;57.22
8039;BME280;4062;49.844;8.120;2022-07-05T01:06:21;99681.22;;;19.56;57.21
8039;BME280;4062;49.844;8.120;2022-07-05T01:08:25;99680.34;;;19.56;57.50
8039;BME280;4062;49.844;8.120;2022-07-05T01:10:27;99682.06;;;19.57;57.44
8039;BME280;4062;49.844;8.120;2022-07-05T01:12:28;99684.75;;;19.57;57.27
8039;BME280;4062;49.844;8.120;2022-07-05T01:14:29;99689.25;;;19.56;57.31
8039;BME280;4062;49.844;8.120;2022-07-05T01:16:29;99688.38;;;19.56;57.40
8039;BME280;4062;49.844;8.120;2022-07-05T01:18:32;99684.75;;;19.57;57.40
8039;BME280;4062;49.844;8.120;2022-07-05T01:20:33;99683.03;;;19.56;57.26
8039;BME280;4062;49.844;8.120;2022-07-05T01:22:55;99683.91;;;19.56;57.22
8039;BME280;4062;49.844;8.120;2022-07-05T01:24:56;99683.91;;;19.56;57.58
8039;BME280;4062;49.844;8.120;2022-07-05T01:26:56;99690.09;;;19.57;57.46
8039;BME280;4062;49.844;8.120;2022-07-05T01:28:58;99691.94;;;19.56;57.54
8039;BME280;4062;49.844;8.120;2022-07-05T01:31:01;99683.91;;;19.56;57.63
8039;BME280;4062;49.844;8.120;2022-07-05T01:33:05;99697.31;;;19.56;57.53
8039;BME280;4062;49.844;8.120;2022-07-05T01:35:09;99697.31;;;19.56;57.47
8039;BME280;4062;49.844;8.120;2022-07-05T01:37:10;99688.38;;;19.56;57.60
8039;BME280;4062;49.844;8.120;2022-07-05T01:39:11;99688.38;;;19.56;57.57
8039;BME280;4062;49.844;8.120;2022-07-05T01:41:12;99683.91;;;19.56;57.20
8039;BME280;4062;49.844;8.120;2022-07-05T01:43:13;99687.53;;;19.55;57.31
8039;BME280;4062;49.844;8.120;2022-07-05T01:45:14;99686.59;;;19.56;57.31
8039;BME280;4062;49.844;8.120;2022-07-05T01:47:42;99688.38;;;19.56;57.42
8039;BME280;4062;49.844;8.120;2022-07-05T01:49:49;99680.25;;;19.57;57.54
8039;BME280;4062;49.844;8.120;2022-07-05T01:51:58;99677.66;;;19.56;57.13
8039;BME280;4062;49.844;8.120;2022-07-05T01:54:01;99682.06;;;19.57;57.47
8039;BME280;4062;49.844;8.120;2022-07-05T01:56:03;99683.03;;;19.56;57.53
8039;BME280;4062;49.844;8.120;2022-07-05T01:58:04;99682.16;;;19.55;57.56
8039;BME280;4062;49.844;8.120;2022-07-05T02:00:05;99682.16;;;19.55;57.44
8039;BME280;4062;49.844;8.120;2022-07-05T02:02:08;99677.66;;;19.56;57.54
8039;BME280;4062;49.844;8.120;2022-07-05T02:04:10;99683.91;;;19.56;57.42
8039;BME280;4062;49.844;8.120;2022-07-05T02:06:11;99676.81;;;19.55;57.50
8039;BME280;4062;49.844;8.120;2022-07-05T02:08:13;99677.66;;;19.56;57.59
8039;BME280;4062;49.844;8.120;2022-07-05T02:10:15;99674.13;;;19.55;57.22
8039;BME280;4062;49.844;8.120;2022-07-05T02:12:16;99676.81;;;19.55;57.45
8039;BME280;4062;49.844;8.120;2022-07-05T02:14:17;99677.66;;;19.56;57.32
8039;BME280;4062;49.844;8.120;2022-07-05T02:16:23;99677.66;;;19.56;57.54
8039;BME280;4062;49.844;8.120;2022-07-05T02:18:24;99681.22;;;19.56;57.44
8039;BME280;4062;49.844;8.120;2022-07-05T02:20:24;99679.50;;;19.55;57.44
8039;BME280;4062;49.844;8.120;2022-07-05T02:22:25;99678.53;;;19.56;57.30
8039;BME280;4062;49.844;8.120;2022-07-05T02:24:26;99682.16;;;19.55;57.04
8039;BME280;4062;49.844;8.120;2022-07-05T02:26:27;99680.34;;;19.56;57.40
8039;BME280;4062;49.844;8.120;2022-07-05T02:28:27;99682.16;;;19.55;57.33
8039;BME280;4062;49.844;8.120;2022-07-05T02:30:28;99690.22;;;19.55;57.36
8039;BME280;4062;49.844;8.120;2022-07-05T02:32:29;99675.94;;;19.55;57.32
8039;BME280;4062;49.844;8.120;2022-07-05T02:34:32;99683.91;;;19.56;57.49
8039;BME280;4062;49.844;8.120;2022-07-05T02:36:32;99673.25;;;19.55;57.27
8039;BME280;4062;49.844;8.120;2022-07-05T02:38:33;99683.03;;;19.56;57.13
8039;BME280;4062;49.844;8.120;2022-07-05T02:40:34;99687.53;;;19.55;57.55
8039;BME280;4062;49.844;8.120;2022-07-05T02:42:35;99686.66;;;19.55;57.35
8039;BME280;4062;49.844;8.120;2022-07-05T02:44:35;99678.59;;;19.55;57.55
8039;BME280;4062;49.844;8.120;2022-07-05T02:46:37;99684.84;;;19.55;57.47
8039;BME280;4062;49.844;8.120;2022-07-05T02:48:38;99683.03;;;19.56;57.65
8039;BME280;4062;49.844;8.120;2022-07-05T02:50:39;99681.28;;;19.55;57.32
8039;BME280;4062;49.844;8.120;2022-07-05T02:52:40;99678.59;;;19.55;57.56
8039;BME280;4062;49.844;8.120;2022-07-05T02:54:40;99676.81;;;19.55;57.31
8039;BME280;4062;49.844;8.120;2022-07-05T02:56:41;99689.25;;;19.56;57.42
8039;BME280;4062;49.844;8.120;2022-07-05T02:58:42;99688.38;;;19.56;57.55
8039;BME280;4062;49.844;8.120;2022-07-05T03:00:47;99682.16;;;19.55;57.35
8039;BME280;4062;49.844;8.120;2022-07-05T03:02:48;99686.66;;;19.55;57.54
8039;BME280;4062;49.844;8.120;2022-07-05T03:04:49;99692.00;;;19.55;57.46
8039;BME280;4062;49.844;8.120;2022-07-05T03:06:50;99689.31;;;19.55;57.39
8039;BME280;4062;49.844;8.120;2022-07-05T03:08:50;99700.94;;;19.55;57.53
8039;BME280;4062;49.844;8.120;2022-07-05T03:10:51;99699.19;;;19.54;57.30
8039;BME280;4062;49.844;8.120;2022-07-05T03:12:52;99708.97;;;19.55;57.53
8039;BME280;4062;49.844;8.120;2022-07-05T03:14:52;99700.94;;;19.55;57.11
8039;BME280;4062;49.844;8.120;2022-07-05T03:16:53;99700.03;;;19.55;57.31
8039;BME280;4062;49.844;8.120;2022-07-05T03:18:54;99701.78;;;19.56;57.54
8039;BME280;4062;49.844;8.120;2022-07-05T03:20:54;99707.13;;;19.56;57.11
8039;BME280;4062;49.844;8.120;2022-07-05T03:22:55;99704.56;;;19.54;57.49
8039;BME280;4062;49.844;8.120;2022-07-05T03:24:56;99695.56;;;19.55;57.62
8039;BME280;4062;49.844;8.120;2022-07-05T03:26:56;99697.38;;;19.55;57.21
8039;BME280;4062;49.844;8.120;2022-07-05T03:28:57;99703.59;;;19.55;57.32
8039;BME280;4062;49.844;8.120;2022-07-05T03:30:58;99698.25;;;19.55;57.20
8039;BME280;4062;49.844;8.120;2022-07-05T03:32:59;99706.28;;;19.55;57.25
8039;BME280;4062;49.844;8.120;2022-07-05T03:34:59;99703.59;;;19.55;57.35
8039;BME280;4062;49.844;8.120;2022-07-05T03:37:00;99700.94;;;19.55;57.60
8039;BME280;4062;49.844;8.120;2022-07-05T03:39:01;99711.66;;;19.55;57.45
8039;BME280;4062;49.844;8.120;2022-07-05T03:41:02;99711.66;;;19.55;57.28
8039;BME280;4062;49.844;8.120;2022-07-05T03:43:03;99700.03;;;19.55;57.29
8039;BME280;4062;49.844;8.120;2022-07-05T03:45:04;99703.59;;;19.55;57.30
8039;BME280;4062;49.844;8.120;2022-07-05T03:47:05;99713.38;;;19.56;57.23
8039;BME280;4062;49.844;8.120;2022-07-05T03:49:06;99714.31;;;19.55;57.58
8039;BME280;4062;49.844;8.120;2022-07-05T03:51:06;99708.97;;;19.55;57.70
8039;BME280;4062;49.844;8.120;2022-07-05T03:53:07;99709.81;;;19.56;57.40
8039;BME280;4062;49.844;8.120;2022-07-05T03:55:08;99708.97;;;19.55;57.10
8039;BME280;4062;49.844;8.120;2022-07-05T03:57:09;99708.09;;;19.55;57.44
8039;BME280;4062;49.844;8.120;2022-07-05T03:59:10;99713.44;;;19.55;57.56
8039;BME280;4062;49.844;8.120;2022-07-05T04:01:11;99719.69;;;19.55;57.37
8039;BME280;4062;49.844;8.120;2022-07-05T04:03:12;99716.13;;;19.55;57.52
8039;BME280;4062;49.844;8.120;2022-07-05T04:05:12;99717.00;;;19.55;57.43
8039;BME280;4062;49.844;8.120;2022-07-05T04:07:13;99725.91;;;19.56;57.60
8039;BME280;4062;49.844;8.120;2022-07-05T04:09:14;99725.03;;;19.55;57.58
8039;BME280;4062;49.844;8.120;2022-07-05T04:11:14;99721.50;;;19.55;57.42
8039;BME280;4062;49.844;8.120;2022-07-05T04:13:16;99726.84;;;19.55;57.36
8039;BME280;4062;49.844;8.120;2022-07-05T04:15:17;99723.22;;;19.56;57.31
8039;BME280;4062;49.844;8.120;2022-07-05T04:17:18;99725.03;;;19.55;57.56
8039;BME280;4062;49.844;8.120;2022-07-05T04:19:18;99727.72;;;19.55;57.20
8039;BME280;4062;49.844;8.120;2022-07-05T04:21:20;99719.69;;;19.55;57.35
8039;BME280;4062;49.844;8.120;2022-07-05T04:23:21;99728.69;;;19.54;57.58
8039;BME280;4062;49.844;8.120;2022-07-05T04:25:21;99727.72;;;19.55;57.38
8039;BME280;4062;49.844;8.120;2022-07-05T04:27:22;99725.03;;;19.55;57.42
8039;BME280;4062;49.844;8.120;2022-07-05T04:29:23;99730.41;;;19.55;57.54
8039;BME280;4062;49.844;8.120;2022-07-05T04:31:24;99726.00;;;19.54;57.49
8039;BME280;4062;49.844;8.120;2022-07-05T04:33:25;99733.09;;;19.55;57.51
8039;BME280;4062;49.844;8.120;2022-07-05T04:35:26;99725.03;;;19.55;57.62
8039;BME280;4062;49.844;8.120;2022-07-05T04:37:27;99735.78;;;19.55;57.58
8039;BME280;4062;49.844;8.120;2022-07-05T04:39:28;99730.41;;;19.55;57.54
8039;BME280;4062;49.844;8.120;2022-07-05T04:41:28;99735.78;;;19.55;57.54
8039;BME280;4062;49.844;8.120;2022-07-05T04:43:29;99734.88;;;19.55;57.63
8039;BME280;4062;49.844;8.120;2022-07-05T04:45:30;99733.09;;;19.55;57.29
8039;BME280;4062;49.844;8.120;2022-07-05T04:47:31;99726.84;;;19.55;57.48
8039;BME280;4062;49.844;8.120;2022-07-05T04:49:31;99728.56;;;19.56;57.54
8039;BME280;4062;49.844;8.120;2022-07-05T04:51:32;99730.41;;;19.55;57.42
8039;BME280;4062;49.844;8.120;2022-07-05T04:53:32;99727.72;;;19.55;57.39
8039;BME280;4062;49.844;8.120;2022-07-05T04:55:33;99737.56;;;19.55;57.55
8039;BME280;4062;49.844;8.120;2022-07-05T04:57:41;99733.09;;;19.55;57.43
8039;BME280;4062;49.844;8.120;2022-07-05T04:59:43;99738.44;;;19.55;57.32
8039;BME280;4062;49.844;8.120;2022-07-05T05:01:43;99735.78;;;19.55;57.35
8039;BME280;4062;49.844;8.120;2022-07-05T05:03:44;99734.88;;;19.55;57.57
8039;BME280;4062;49.844;8.120;2022-07-05T05:05:45;99735.78;;;19.55;57.36
8039;BME280;4062;49.844;8.120;2022-07-05T05:07:46;99744.66;;;19.56;57.61
8039;BME280;4062;49.844;8.120;2022-07-05T05:09:46;99737.56;;;19.55;57.52
8039;BME280;4062;49.844;8.120;2022-07-05T05:11:47;99743.81;;;19.55;57.58
8039;BME280;4062;49.844;8.120;2022-07-05T05:13:48;99752.69;;;19.56;57.41
8039;BME280;4062;49.844;8.120;2022-07-05T05:15:49;99749.16;;;19.55;57.33
8039;BME280;4062;49.844;8.120;2022-07-05T05:17:49;99751.84;;;19.55;57.19
8039;BME280;4062;49.844;8.120;2022-07-05T05:19:50;99757.22;;;19.55;57.50
8039;BME280;4062;49.844;8.120;2022-07-05T05:21:51;99753.59;;;19.56;57.11
8039;BME280;4062;49.844;8.120;2022-07-05T05:23:51;99757.22;;;19.55;57.30
8039;BME280;4062;49.844;8.120;2022-07-05T05:25:52;99765.25;;;19.55;57.61
8039;BME280;4062;49.844;8.120;2022-07-05T05:27:53;99763.41;;;19.56;57.61
8039;BME280;4062;49.844;8.120;2022-07-05T05:29:53;99768.78;;;19.56;57.26
8039;BME280;4062;49.844;8.120;2022-07-05T05:31:54;99773.28;;;19.55;57.26
8039;BME280;4062;49.844;8.120;2022-07-05T05:33:55;99766.09;;;19.56;57.41
8039;BME280;4062;49.844;8.120;2022-07-05T05:35:56;99765.25;;;19.55;57.25
8039;BME280;4062;49.844;8.120;2022-07-05T05:37:56;99771.47;;;19.56;57.42
8039;BME280;4062;49.844;8.120;2022-07-05T05:39:57;99767.94;;;19.55;57.38
8039;BME280;4062;49.844;8.120;2022-07-05T05:41:58;99771.47;;;19.56;57.51
8039;BME280;4062;49.844;8.120;2022-07-05T05:43:58;99777.69;;;19.56;57.44
8039;BME280;4062;49.844;8.120;2022-07-05T05:45:59;99773.28;;;19.55;57.55
8039;BME280;4062;49.844;8.120;2022-07-05T05:48:00;99775.97;;;19.55;57.36
8039;BME280;4062;49.844;8.120;2022-07-05T05:50:01;99778.66;;;19.55;57.54
8039;BME280;4062;49.844;8.120;2022-07-05T05:52:01;99785.75;;;19.56;57.24
8039;BME280;4062;49.844;8.120;2022-07-05T05:54:02;99774.13;;;19.56;57.62
8039;BME280;4062;49.844;8.120;2022-07-05T05:56:03;99775.97;;;19.55;57.30
8039;BME280;4062;49.844;8.120;2022-07-05T05:58:18;99781.22;;;19.57;57.55
8039;BME280;4062;49.844;8.120;2022-07-05T06:00:21;99779.50;;;19.56;57.44
8039;BME280;4062;49.844;8.120;2022-07-05T06:02:21;99787.53;;;19.56;57.46
8039;BME280;4062;49.844;8.120;2022-07-05T06:04:22;99786.59;;;19.57;57.62
8039;BME280;4062;49.844;8.120;2022-07-05T06:06:23;99789.28;;;19.57;57.31
8039;BME280;4062;49.844;8.120;2022-07-05T06:08:23;99792.81;;;19.57;57.40
8039;BME280;4062;49.844;8.120;2022-07-05T06:10:32;99788.31;;;19.58;57.22
8039;BME280;4062;49.844;8.120;2022-07-05T06:12:33;99784.75;;;19.57;57.35
8039;BME280;4062;49.844;8.120;2022-07-05T06:14:34;99788.31;;;19.58;57.37
8039;BME280;4062;49.844;8.120;2022-07-05T06:16:34;99788.31;;;19.58;57.43
8039;BME280;4062;49.844;8.120;2022-07-05T06:18:35;99792.81;;;19.57;57.56
8039;BME280;4062;49.844;8.120;2022-07-05T06:20:38;99796.28;;;19.59;57.34
8039;BME280;4062;49.844;8.120;2022-07-05T06:22:39;99790.91;;;19.59;57.40
8039;BME280;4062;49.844;8.120;2022-07-05T06:24:40;99790.91;;;19.59;57.07
8039;BME280;4062;49.844;8.120;2022-07-05T06:26:41;99788.22;;;19.59;57.07
8039;BME280;4062;49.844;8.120;2022-07-05T06:28:41;99798.00;;;19.60;57.29
8039;BME280;4062;49.844;8.120;2022-07-05T06:30:42;99797.91;;;19.62;57.17
8039;BME280;4062;49.844;8.120;2022-07-05T06:32:47;99798.78;;;19.62;57.49
8039;BME280;4062;49.844;8.120;2022-07-05T06:34:48;99795.16;;;19.63;57.17
8039;BME280;4062;49.844;8.120;2022-07-05T06:36:49;99794.13;;;19.66;57.34
8039;BME280;4062;49.844;8.120;2022-07-05T06:38:49;99794.03;;;19.67;57.25
8039;BME280;4062;49.844;8.120;2022-07-05T06:40:50;99789.47;;;19.69;57.01
8039;BME280;4062;49.844;8.120;2022-07-05T06:42:53;99793.78;;;19.72;56.72
8039;BME280;4062;49.844;8.120;2022-07-05T06:44:54;99799.06;;;19.74;56.69
8039;BME280;4062;49.844;8.120;2022-07-05T06:46:55;99811.34;;;19.78;56.98
8039;BME280;4062;49.844;8.120;2022-07-05T06:48:56;99805.97;;;19.78;56.95
8039;BME280;4062;49.844;8.120;2022-07-05T06:50:57;99800.50;;;19.79;56.76
8039;BME280;4062;49.844;8.120;2022-07-05T06:52:58;99804.94;;;19.80;56.95
8039;BME280;4062;49.844;8.120;2022-07-05T06:54:59;99798.72;;;19.80;56.63
8039;BME280;4062;49.844;8.120;2022-07-05T06:57:00;99804.06;;;19.80;56.72
8039;BME280;4062;49.844;8.120;2022-07-05T06:59:01;99806.84;;;19.78;56.72
8039;BME280;4062;49.844;8.120;2022-07-05T07:01:01;99804.19;;;19.78;56.63
8039;BME280;4062;49.844;8.120;2022-07-05T07:03:02;99804.06;;;19.80;56.87
8039;BME280;4062;49.844;8.120;2022-07-05T07:05:04;99801.50;;;19.78;57.03
8039;BME280;4062;49.844;8.120;2022-07-05T07:07:04;99802.44;;;19.77;56.93
8039;BME280;4062;49.844;8.120;2022-07-05T07:09:25;99800.78;;;19.75;56.84
8039;BME280;4062;49.844;8.120;2022-07-05T07:11:26;99802.44;;;19.77;56.67
8039;BME280;4062;49.844;8.120;2022-07-05T07:13:27;99806.13;;;19.75;56.78
8039;BME280;4062;49.844;8.120;2022-07-05T07:15:29;99807.88;;;19.76;56.92
8039;BME280;4062;49.844;8.120;2022-07-05T07:17:29;99802.44;;;19.77;56.92
8039;BME280;4062;49.844;8.120;2022-07-05T07:19:30;99814.00;;;19.78;56.78
8039;BME280;4062;49.844;8.120;2022-07-05T07:21:31;99812.28;;;19.77;57.01
8039;BME280;4062;49.844;8.120;2022-07-05T07:23:31;99809.59;;;19.77;56.71
8039;BME280;4062;49.844;8.120;2022-07-05T07:25:32;99805.13;;;19.77;56.93
8039;BME280;4062;49.844;8.120;2022-07-05T07:27:44;99805.13;;;19.77;56.80
8039;BME280;4062;49.844;8.120;2022-07-05T07:29:46;99812.22;;;19.78;56.70
8039;BME280;4062;49.844;8.120;2022-07-05T07:31:46;99811.34;;;19.78;56.79
8039;BME280;4062;49.844;8.120;2022-07-05T07:33:47;99813.06;;;19.79;56.64
8039;BME280;4062;49.844;8.120;2022-07-05T07:35:48;99814.00;;;19.78;56.77
8039;BME280;4062;49.844;8.120;2022-07-05T07:37:48;99818.44;;;19.79;56.80
8039;BME280;4062;49.844;8.120;2022-07-05T07:39:49;99815.75;;;19.79;56.94
8039;BME280;4062;49.844;8.120;2022-07-05T07:41:50;99818.44;;;19.79;57.02
8039;BME280;4062;49.844;8.120;2022-07-05T07:43:51;99816.69;;;19.78;56.88
8039;BME280;4062;49.844;8.120;2022-07-05T07:45:52;99821.22;;;19.77;56.84
8039;BME280;4062;49.844;8.120;2022-07-05T07:47:52;99823.88;;;19.77;56.89
8039;BME280;4062;49.844;8.120;2022-07-05T07:49:53;99823.00;;;19.77;56.92
8039;BME280;4062;49.844;8.120;2022-07-05T07:51:54;99821.22;;;19.77;57.11
8039;BME280;4062;49.844;8.120;2022-07-05T07:53:54;99827.41;;;19.78;57.09
8039;BME280;4062;49.844;8.120;2022-07-05T07:55:55;99825.63;;;19.78;56.71
8039;BME280;4062;49.844;8.120;2022-07-05T07:57:56;99825.63;;;19.78;56.87
8039;BME280;4062;49.844;8.120;2022-07-05T07:59:57;99829.16;;;19.79;56.77
8039;BME280;4062;49.844;8.120;2022-07-05T08:01:58;99826.47;;;19.79;56.78
8039;BME280;4062;49.844;8.120;2022-07-05T08:03:59;99824.66;;;19.79;56.87
8039;BME280;4062;49.844;8.120;2022-07-05T08:06:00;99822.84;;;19.80;57.07
8039;BME280;4062;49.844;8.120;2022-07-05T08:08:00;99828.22;;;19.80;56.90
8039;BME280;4062;49.844;8.120;2022-07-05T08:10:05;99826.47;;;19.79;57.07
8039;BME280;4062;49.844;8.120;2022-07-05T08:12:07;99824.66;;;19.79;56.52
8039;BME280;4062;49.844;8.120;2022-07-05T08:14:08;99821.97;;;19.79;56.87
8039;BME280;4062;49.844;8.120;2022-07-05T08:16:10;99820.16;;;19.80;56.76
8039;BME280;4062;49.844;8.120;2022-07-05T08:18:11;99821.00;;;19.80;56.99
8039;BME280;4062;49.844;8.120;2022-07-05T08:20:30;99817.47;;;19.80;56.78
8039;BME280;4062;49.844;8.120;2022-07-05T08:22:49;99812.97;;;19.80;57.01
8039;BME280;4062;49.844;8.120;2022-07-05T08:24:50;99814.81;;;19.80;56.69
8039;BME280;4062;49.844;8.120;2022-07-05T08:26:51;99808.56;;;19.79;57.02
8039;BME280;4062;49.844;8.120;2022-07-05T08:28:52;99813.91;;;19.79;57.08
8039;BME280;4062;49.844;8.120;2022-07-05T08:30:52;99809.53;;;19.78;56.93
8039;BME280;4062;49.844;8.120;2022-07-05T08:32:53;99808.56;;;19.79;56.76
8039;BME280;4062;49.844;8.120;2022-07-05T08:34:54;99797.94;;;19.78;56.66
8039;BME280;4062;49.844;8.120;2022-07-05T08:36:54;99809.53;;;19.78;56.87
8039;BME280;4062;49.844;8.120;2022-07-05T08:38:55;99810.47;;;19.77;56.96
8039;BME280;4062;49.844;8.120;2022-07-05T08:40:57;99806.84;;;19.78;56.72
8039;BME280;4062;49.844;8.120;2022-07-05T08:42:58;99810.47;;;19.77;56.93
8039;BME280;4062;49.844;8.120;2022-07-05T08:44:59;99815.84;;;19.77;56.80
8039;BME280;4062;49.844;8.120;2022-07-05T08:47:02;99807.81;;;19.77;56.78
8039;BME280;4062;49.844;8.120;2022-07-05T08:49:04;99808.66;;;19.78;56.85
8039;BME280;4062;49.844;8.120;2022-07-05T08:51:05;99814.97;;;19.77;56.69
8039;BME280;4062;49.844;8.120;2022-07-05T08:53:06;99815.84;;;19.77;56.63
8039;BME280;4062;49.844;8.120;2022-07-05T08:55:07;99809.53;;;19.78;56.74
8039;BME280;4062;49.844;8.120;2022-07-05T08:57:08;99817.56;;;19.78;57.07
8039;BME280;4062;49.844;8.120;2022-07-05T08:59:09;99810.38;;;19.79;56.83
8039;BME280;4062;49.844;8.120;2022-07-05T09:01:12;99818.44;;;19.79;56.94
8039;BME280;4062;49.844;8.120;2022-07-05T09:03:14;99813.91;;;19.79;57.07
8039;BME280;4062;49.844;8.120;2022-07-05T09:05:18;99816.59;;;19.79;56.96
8039;BME280;4062;49.844;8.120;2022-07-05T09:07:22;99805.88;;;19.79;56.74
8039;BME280;4062;49.844;8.120;2022-07-05T09:09:26;99803.19;;;19.79;57.03
8039;BME280;4062;49.844;8.120;2022-07-05T09:11:48;99810.28;;;19.80;57.02
8039;BME280;4062;49.844;8.120;2022-07-05T09:13:49;99806.75;;;19.80;56.83
8039;BME280;4062;49.844;8.120;2022-07-05T09:15:50;99805.81;;;19.81;56.63
8039;BME280;4062;49.844;8.120;2022-07-05T09:17:51;99804.06;;;19.80;56.95
8039;BME280;4062;49.844;8.120;2022-07-05T09:20:09;99803.97;;;19.81;56.97
8039;BME280;4062;49.844;8.120;2022-07-05T09:22:10;99801.31;;;19.81;56.81
8039;BME280;4062;49.844;8.120;2022-07-05T09:24:12;99796.88;;;19.80;56.67
8039;BME280;4062;49.844;8.120;2022-07-05T09:26:13;99802.25;;;19.80;56.88
8039;BME280;4062;49.844;8.120;2022-07-05T09:28:14;99801.41;;;19.80;56.81
8039;BME280;4062;49.844;8.120;2022-07-05T09:30:39;99796.88;;;19.80;56.94
8039;BME280;4062;49.844;8.120;2022-07-05T09:32:41;99797.84;;;19.79;56.94
8039;BME280;4062;49.844;8.120;2022-07-05T09:34:42;99794.19;;;19.80;56.81
8039;BME280;4062;49.844;8.120;2022-07-05T09:37:00;99797.84;;;19.79;57.15
8039;BME280;4062;49.844;8.120;2022-07-05T09:39:04;99789.78;;;19.79;57.19
8039;BME280;4062;49.844;8.120;2022-07-05T09:41:11;99793.34;;;19.80;56.72
8039;BME280;4062;49.844;8.120;2022-07-05T09:43:15;99786.25;;;19.79;57.05
8039;BME280;4062;49.844;8.120;2022-07-05T09:45:23;99792.47;;;19.79;57.02
8039;BME280;4062;49.844;8.120;2022-07-05T09:47:27;99799.66;;;19.79;56.92
8039;BME280;4062;49.844;8.120;2022-07-05T09:49:28;99798.81;;;19.78;56.91
8039;BME280;4062;49.844;8.120;2022-07-05T09:51:47;99796.13;;;19.78;56.71
8039;BME280;4062;49.844;8.120;2022-07-05T09:53:59;99795.16;;;19.79;57.12
8039;BME280;4062;49.844;8.120;2022-07-05T09:56:02;99792.47;;;19.79;56.82
8039;BME280;4062;49.844;8.120;2022-07-05T09:58:04;99794.19;;;19.80;57.06
8039;BME280;4062;49.844;8.120;2022-07-05T10:00:15;99790.66;;;19.80;56.69
8039;BME280;4062;49.844;8.120;2022-07-05T10:04:40;99795.09;;;19.81;56.95
8039;BME280;4062;49.844;8.120;2022-07-05T10:06:40;99802.25;;;19.80;57.14
8039;BME280;4062;49.844;8.120;2022-07-05T10:08:42;99801.31;;;19.81;56.81
8039;BME280;4062;49.844;8.120;2022-07-05T10:10:45;99801.41;;;19.80;56.93
8039;BME280;4062;49.844;8.120;2022-07-05T10:12:50;99802.25;;;19.80;56.95
8039;BME280;4062;49.844;8.120;2022-07-05T10:14:51;99808.50;;;19.81;57.29
8039;BME280;4062;49.844;8.120;2022-07-05T10:17:00;99803.97;;;19.81;57.04
8039;BME280;4062;49.844;8.120;2022-07-05T10:19:01;99799.56;;;19.80;56.89
8039;BME280;4062;49.844;8.120;2022-07-05T10:21:02;99795.94;;;19.81;57.03
8039;BME280;4062;49.844;8.120;2022-07-05T10:23:06;99797.78;;;19.81;56.89
8039;BME280;4062;49.844;8.120;2022-07-05T10:25:07;99790.56;;;19.81;56.93
8039;BME280;4062;49.844;8.120;2022-07-05T10:27:08;99787.91;;;19.81;56.87
8039;BME280;4062;49.844;8.120;2022-07-05T10:29:09;99789.72;;;19.81;57.05
8039;BME280;4062;49.844;8.120;2022-07-05T10:31:12;99795.09;;;19.81;56.88
8039;BME280;4062;49.844;8.120;2022-07-05T10:33:13;99792.41;;;19.81;56.71
8039;BME280;4062;49.844;8.120;2022-07-05T10:35:18;99796.81;;;19.82;57.08
8039;BME280;4062;49.844;8.120;2022-07-05T10:37:20;99798.63;;;19.81;56.83
8039;BME280;4062;49.844;8.120;2022-07-05T10:39:22;99796.81;;;19.82;57.03
8039;BME280;4062;49.844;8.120;2022-07-05T10:41:26;99787.03;;;19.81;57.10
8039;BME280;4062;49.844;8.120;2022-07-05T10:43:29;99790.56;;;19.81;56.98
8039;BME280;4062;49.844;8.120;2022-07-05T10:45:35;99795.94;;;19.81;57.03
8039;BME280;4062;49.844;8.120;2022-07-05T10:47:36;99791.47;;;19.82;57.18
8039;BME280;4062;49.844;8.120;2022-07-05T10:49:39;99789.72;;;19.81;56.91
8039;BME280;4062;49.844;8.120;2022-07-05T10:51:40;99795.09;;;19.81;56.86
8039;BME280;4062;49.844;8.120;2022-07-05T11:00:16;99785.31;;;19.80;56.90
8039;BME280;4062;49.844;8.120;2022-07-05T11:02:17;99781.69;;;19.81;56.95
8039;BME280;4062;49.844;8.120;2022-07-05T11:04:25;99785.22;;;19.81;56.91
8039;BME280;4062;49.844;8.120;2022-07-05T11:11:13;99778.13;;;19.80;57.08
8039;BME280;4062;49.844;8.120;2022-07-05T11:13:36;99775.44;;;19.80;57.07
8039;BME280;4062;49.844;8.120;2022-07-05T11:15:38;99789.72;;;19.81;56.93
8039;BME280;4062;49.844;8.120;2022-07-05T11:17:38;99771.91;;;19.80;57.18
8039;BME280;4062;49.844;8.120;2022-07-05T11:20:03;99778.13;;;19.80;56.93